createdAt,value
2023-05-14T00:00:30.346Z,68.80
2023-05-14T00:02:59.132Z,68.40
2023-05-14T00:05:27.560Z,69.00
2023-05-14T00:07:54.301Z,68.34
2023-05-14T00:10:20.858Z,69.57
2023-05-14T00:12:47.429Z,68.37
2023-05-14T00:15:15.937Z,68.15
2023-05-14T00:17:44.521Z,68.79
2023-05-14T00:20:13.374Z,69.19
2023-05-14T00:22:41.701Z,69.25
2023-05-14T00:25:10.305Z,68.36
2023-05-14T00:27:37.964Z,68.86
2023-05-14T00:30:05.477Z,69.26
2023-05-14T00:32:33.118Z,68.89
2023-05-14T00:35:00.670Z,69.07
2023-05-14T00:37:29.530Z,68.91
2023-05-14T00:39:57.862Z,68.54
2023-05-14T00:42:27.026Z,69.43
2023-05-14T00:44:54.020Z,69.42
2023-05-14T00:47:21.670Z,70.24
2023-05-14T00:49:48.302Z,70.17
2023-05-14T00:52:14.809Z,69.52
2023-05-14T00:54:43.424Z,70.25
2023-05-14T00:57:11.010Z,69.73
2023-05-14T00:59:38.597Z,69.11
2023-05-14T01:02:06.194Z,69.34
2023-05-14T01:04:33.072Z,69.56
2023-05-14T01:07:00.361Z,69.80
2023-05-14T01:09:27.025Z,69.13
2023-05-14T01:11:54.532Z,69.31
2023-05-14T01:14:23.252Z,69.32
2023-05-14T01:16:50.927Z,70.27
2023-05-14T01:19:18.349Z,69.57
2023-05-14T01:21:45.910Z,70.03
2023-05-14T01:24:15.030Z,70.46
2023-05-14T01:26:42.084Z,70.26
2023-05-14T01:29:08.683Z,69.97
2023-05-14T01:31:35.443Z,69.49
2023-05-14T01:34:03.001Z,68.90
2023-05-14T01:36:30.567Z,69.29
2023-05-14T01:38:58.180Z,70.00
2023-05-14T01:41:27.261Z,70.14
2023-05-14T01:43:55.347Z,69.62
2023-05-14T01:46:23.009Z,69.41
2023-05-14T01:48:51.549Z,69.89
2023-05-14T01:51:19.131Z,70.32
2023-05-14T01:53:47.743Z,70.54
2023-05-14T01:56:14.338Z,70.69
2023-05-14T01:58:42.911Z,70.12
2023-05-14T02:01:10.550Z,70.91
2023-05-14T02:03:38.144Z,70.65
2023-05-14T02:06:07.083Z,71.09
2023-05-14T02:08:35.336Z,70.24
2023-05-14T02:11:02.947Z,70.18
2023-05-14T02:13:31.527Z,69.81
2023-05-14T02:16:00.295Z,70.06
2023-05-14T02:18:27.779Z,69.79
2023-05-14T02:20:56.710Z,69.76
2023-05-14T02:23:34.080Z,69.31
2023-05-14T02:26:05.585Z,69.19
2023-05-14T02:28:33.150Z,69.55
2023-05-14T02:31:00.806Z,69.72
2023-05-14T02:33:28.387Z,69.29
2023-05-14T02:35:55.975Z,70.17
2023-05-14T02:38:23.570Z,69.87
2023-05-14T02:40:51.167Z,69.42
2023-05-14T02:43:18.725Z,69.25
2023-05-14T02:45:46.316Z,69.27
2023-05-14T02:48:13.957Z,69.75
2023-05-14T02:50:41.507Z,69.91
2023-05-14T02:53:10.100Z,69.79
2023-05-14T02:55:36.689Z,70.88
2023-05-14T02:58:03.259Z,70.45
2023-05-14T03:00:31.874Z,70.35
2023-05-14T03:03:00.495Z,71.10
2023-05-14T03:05:29.080Z,70.04
2023-05-14T03:07:56.664Z,71.44
2023-05-14T03:10:24.584Z,70.25
2023-05-14T03:12:51.834Z,70.06
2023-05-14T03:15:20.416Z,69.99
2023-05-14T03:17:47.033Z,70.37
2023-05-14T03:20:14.660Z,69.65
2023-05-14T03:22:43.214Z,69.55
2023-05-14T03:25:09.755Z,69.35
2023-05-14T03:27:36.187Z,69.22
2023-05-14T03:30:04.000Z,69.74
2023-05-14T03:32:31.602Z,69.03
2023-05-14T03:34:59.172Z,68.68
2023-05-14T03:37:27.759Z,68.86
2023-05-14T03:39:56.355Z,69.72
2023-05-14T03:42:24.956Z,69.62
2023-05-14T03:44:52.549Z,70.79
2023-05-14T03:47:20.162Z,70.06
2023-05-14T03:49:48.803Z,69.87
2023-05-14T03:52:15.402Z,69.45
2023-05-14T03:54:46.028Z,70.04
2023-05-14T03:57:14.776Z,70.67
2023-05-14T03:59:41.264Z,70.41
2023-05-14T04:02:10.045Z,69.29
2023-05-14T04:04:37.452Z,69.56
2023-05-14T04:07:04.985Z,69.74
2023-05-14T04:09:33.693Z,69.34
2023-05-14T04:12:02.179Z,69.02
2023-05-14T04:14:30.778Z,69.56
2023-05-14T04:17:00.167Z,69.78
2023-05-14T04:19:29.256Z,69.65
2023-05-14T04:21:57.554Z,70.68
2023-05-14T04:24:25.167Z,70.24
2023-05-14T04:26:53.755Z,70.26
2023-05-14T04:29:22.716Z,70.01
2023-05-14T04:31:50.958Z,69.51
2023-05-14T04:34:18.530Z,69.49
2023-05-14T04:36:47.157Z,68.75
2023-05-14T04:39:14.723Z,69.42
2023-05-14T04:41:43.306Z,68.92
2023-05-14T04:44:09.800Z,69.18
2023-05-14T04:46:36.511Z,68.42
2023-05-14T04:49:03.475Z,68.73
2023-05-14T04:51:29.970Z,69.05
2023-05-14T04:53:56.413Z,69.51
2023-05-14T04:56:24.832Z,69.50
2023-05-14T04:58:51.481Z,69.19
2023-05-14T05:01:20.029Z,70.18
2023-05-14T05:03:47.679Z,68.54
2023-05-14T05:06:16.217Z,68.04
2023-05-14T05:08:45.141Z,68.91
2023-05-14T05:11:13.429Z,69.50
2023-05-14T05:13:41.059Z,68.93
2023-05-14T05:16:07.728Z,68.78
2023-05-14T05:18:36.341Z,68.47
2023-05-14T05:21:03.899Z,68.83
2023-05-14T05:23:31.469Z,68.89
2023-05-14T05:25:59.070Z,69.52
2023-05-14T05:28:26.653Z,68.05
2023-05-14T05:30:55.247Z,67.96
2023-05-14T05:33:23.812Z,68.02
2023-05-14T05:35:51.446Z,68.19
2023-05-14T05:38:19.032Z,68.73
2023-05-14T05:40:46.612Z,67.76
2023-05-14T05:43:13.212Z,67.98
2023-05-14T05:45:39.803Z,67.82
2023-05-14T05:48:07.472Z,67.83
2023-05-14T05:50:33.963Z,66.70
2023-05-14T05:53:01.611Z,66.18
2023-05-14T05:55:28.462Z,65.29
2023-05-14T05:57:55.801Z,66.72
2023-05-14T06:00:25.218Z,66.92
2023-05-14T06:02:54.033Z,67.88
2023-05-14T06:05:22.988Z,67.11
2023-05-14T06:07:50.155Z,67.42
2023-05-14T06:10:18.761Z,67.36
2023-05-14T06:12:47.545Z,66.50
2023-05-14T06:15:15.151Z,65.70
2023-05-14T06:17:42.761Z,66.49
2023-05-14T06:20:11.331Z,66.82
2023-05-14T06:22:39.955Z,68.45
2023-05-14T06:25:07.546Z,67.95
2023-05-14T06:27:36.152Z,67.52
2023-05-14T06:30:03.007Z,68.26
2023-05-14T06:32:30.370Z,67.02
2023-05-14T06:34:57.915Z,67.48
2023-05-14T06:37:24.517Z,67.40
2023-05-14T06:39:51.125Z,66.67
2023-05-14T06:42:18.043Z,67.41
2023-05-14T06:44:45.292Z,67.41
2023-05-14T06:47:12.869Z,67.16
2023-05-14T06:49:40.467Z,67.04
2023-05-14T06:52:06.943Z,67.31
2023-05-14T06:54:33.441Z,67.37
2023-05-14T06:56:59.918Z,67.39
2023-05-14T06:59:26.401Z,67.54
2023-05-14T07:01:54.479Z,66.65
2023-05-14T07:04:22.057Z,66.75
2023-05-14T07:06:49.590Z,66.91
2023-05-14T07:09:17.215Z,66.59
2023-05-14T07:11:44.004Z,66.52
2023-05-14T07:14:10.484Z,66.33
2023-05-14T07:16:37.004Z,66.47
2023-05-14T07:19:03.592Z,65.56
2023-05-14T07:26:56.498Z,63.49
2023-05-14T07:32:31.227Z,64.04
2023-05-14T07:43:46.359Z,60.96
2023-05-14T07:45:50.037Z,58.99
2023-05-14T07:48:21.940Z,58.13
2023-05-14T07:50:51.215Z,57.80
2023-05-14T07:53:21.186Z,58.11
2023-05-14T07:55:49.431Z,59.00
2023-05-14T07:58:18.274Z,58.07
2023-05-14T08:00:47.653Z,58.23
2023-05-14T08:03:17.362Z,57.99
2023-05-14T08:05:45.843Z,57.30
2023-05-14T08:08:13.429Z,57.11
2023-05-14T08:10:41.063Z,57.44
2023-05-14T08:13:09.636Z,58.18
2023-05-14T08:15:38.200Z,56.79
2023-05-14T08:18:07.710Z,56.90
2023-05-14T08:20:34.442Z,56.63
2023-05-14T08:23:05.236Z,54.92
2023-05-14T08:25:33.996Z,52.13
2023-05-14T08:28:03.221Z,51.76
2023-05-14T08:30:31.857Z,52.95
2023-05-14T08:32:59.472Z,52.63
2023-05-14T08:35:39.185Z,49.97
2023-05-14T08:38:08.026Z,50.27
2023-05-14T08:40:42.246Z,49.07
2023-05-14T08:43:09.888Z,50.08
2023-05-14T08:45:37.494Z,47.35
2023-05-14T08:48:05.130Z,50.70
2023-05-14T08:50:32.704Z,48.42
2023-05-14T08:53:00.249Z,47.73
2023-05-14T08:55:30.584Z,48.03
2023-05-14T08:58:03.515Z,47.82
2023-05-14T09:00:33.975Z,46.82
2023-05-14T09:03:03.045Z,45.49
2023-05-14T09:05:31.274Z,45.98
2023-05-14T09:07:58.812Z,47.82
2023-05-14T09:10:26.650Z,48.75
2023-05-14T09:12:54.036Z,48.37
2023-05-14T09:15:23.369Z,48.27
2023-05-14T09:17:52.273Z,46.82
2023-05-14T09:20:20.822Z,49.45
2023-05-14T09:22:49.442Z,50.61
2023-05-14T09:25:18.040Z,51.24
2023-05-14T09:27:46.813Z,51.84
2023-05-14T09:30:14.192Z,48.63
2023-05-14T09:35:25.162Z,52.68
2023-05-14T09:37:52.025Z,51.90
2023-05-14T09:46:14.032Z,51.56
2023-05-14T09:48:41.703Z,52.70
2023-05-14T09:51:12.489Z,51.30
2023-05-14T09:53:40.867Z,51.42
2023-05-14T09:59:01.050Z,52.27
2023-05-14T10:04:33.125Z,49.55
2023-05-14T10:07:20.354Z,52.15
2023-05-14T10:10:00.062Z,52.24
2023-05-14T10:26:03.613Z,54.49
2023-05-14T10:34:39.725Z,53.71
2023-05-14T10:59:13.197Z,61.37
2023-05-14T11:28:56.163Z,58.87
2023-05-14T11:31:31.856Z,58.67
2023-05-14T12:05:25.156Z,50.36
2023-05-14T12:07:54.328Z,50.11
2023-05-14T12:13:27.803Z,48.66
2023-05-14T12:15:57.349Z,46.90
2023-05-14T12:18:32.428Z,49.28
2023-05-14T12:21:01.527Z,49.65
2023-05-14T12:23:30.257Z,48.48
2023-05-14T12:25:59.769Z,48.59
2023-05-14T12:28:28.298Z,49.18
2023-05-14T12:30:57.824Z,48.44
2023-05-14T12:33:26.653Z,47.92
2023-05-14T12:38:42.162Z,48.62
2023-05-14T12:49:33.355Z,48.75
2023-05-14T12:52:19.486Z,50.37
2023-05-14T12:57:27.362Z,49.54
2023-05-14T12:59:55.967Z,46.77
2023-05-14T13:02:25.400Z,47.28
2023-05-14T13:07:39.985Z,47.60
2023-05-14T13:10:09.347Z,47.69
2023-05-14T13:12:36.066Z,47.01
2023-05-14T13:15:07.942Z,47.61
2023-05-14T13:17:35.262Z,46.34
2023-05-14T13:20:06.617Z,45.11
2023-05-14T13:23:53.384Z,47.23
2023-05-14T13:30:58.455Z,46.68
2023-05-14T13:33:27.502Z,42.62
2023-05-14T13:36:47.742Z,47.03
2023-05-14T13:38:46.363Z,47.26
2023-05-14T13:41:13.932Z,45.58
2023-05-14T13:43:43.758Z,45.71
2023-05-14T13:46:14.323Z,45.52
2023-05-14T13:48:42.763Z,44.68
2023-05-14T13:56:21.662Z,45.22
2023-05-14T13:58:50.846Z,45.81
2023-05-14T14:01:18.954Z,45.88
2023-05-14T14:03:46.387Z,46.64
2023-05-14T14:08:04.512Z,44.92
2023-05-14T14:09:15.152Z,44.09
2023-05-14T14:11:42.656Z,44.40
2023-05-14T14:14:11.156Z,45.16
2023-05-14T14:16:39.966Z,42.42
2023-05-14T14:19:11.432Z,43.73
2023-05-14T14:24:34.873Z,43.26
2023-05-14T14:27:03.540Z,43.33
2023-05-14T14:29:32.113Z,43.97
2023-05-14T14:34:49.482Z,40.26
2023-05-14T14:37:21.235Z,41.56
2023-05-14T14:45:10.923Z,40.88
2023-05-14T14:47:40.434Z,40.51
2023-05-14T14:53:13.799Z,38.86
2023-05-14T14:55:42.729Z,38.71
2023-05-14T15:03:58.795Z,40.64
2023-05-14T15:09:22.542Z,41.10
2023-05-14T15:12:04.472Z,42.53
2023-05-14T15:17:49.434Z,43.55
2023-05-14T15:20:16.561Z,43.67
2023-05-14T15:22:49.141Z,43.47
2023-05-14T15:31:07.173Z,45.61
2023-05-14T15:33:39.041Z,48.78
2023-05-14T15:36:16.030Z,53.44
2023-05-14T15:39:18.477Z,56.46
2023-05-14T16:01:42.570Z,51.84
2023-05-14T16:04:12.923Z,53.35
2023-05-14T16:06:47.805Z,52.67
2023-05-14T16:31:32.752Z,39.20
2023-05-14T16:34:04.683Z,39.04
2023-05-14T16:39:22.572Z,38.11
2023-05-14T16:50:13.523Z,37.59
2023-05-14T17:28:52.641Z,51.55
2023-05-14T17:44:12.906Z,61.42
2023-05-14T17:46:41.046Z,63.75
2023-05-14T17:49:08.527Z,63.96
2023-05-14T17:51:37.109Z,66.55
2023-05-14T17:54:06.453Z,74.13
2023-05-14T17:56:35.375Z,81.89
2023-05-14T17:59:02.968Z,87.77
2023-05-14T18:01:31.910Z,89.35
2023-05-14T18:04:00.214Z,90.13
2023-05-14T18:06:27.706Z,90.89
2023-05-14T18:08:55.305Z,91.78
2023-05-14T18:11:22.911Z,90.82
2023-05-14T18:13:49.472Z,91.48
2023-05-14T18:16:16.416Z,90.79
2023-05-14T18:18:43.680Z,90.65
2023-05-14T18:21:11.267Z,90.41
2023-05-14T18:23:39.875Z,90.21
2023-05-14T18:26:07.455Z,90.16
2023-05-14T18:28:35.040Z,90.55
2023-05-14T18:31:03.938Z,90.41
2023-05-14T18:33:32.254Z,89.57
2023-05-14T18:35:59.852Z,89.62
2023-05-14T18:38:27.420Z,89.35
2023-05-14T18:40:55.026Z,89.36
2023-05-14T18:43:22.642Z,89.42
2023-05-14T18:45:52.244Z,89.75
2023-05-14T18:48:22.256Z,88.67
2023-05-14T18:50:50.242Z,89.38
2023-05-14T18:53:23.119Z,88.54
2023-05-14T18:55:50.061Z,89.06
2023-05-14T18:58:19.577Z,88.04
2023-05-14T19:00:47.522Z,88.99
2023-05-14T19:03:15.075Z,89.51
2023-05-14T19:05:42.117Z,88.05
2023-05-14T19:08:10.303Z,87.63
2023-05-14T19:10:36.903Z,87.14
2023-05-14T19:13:04.579Z,85.89
2023-05-14T19:15:33.174Z,87.70
2023-05-14T19:17:59.913Z,88.00
2023-05-14T19:20:27.486Z,89.36
2023-05-14T19:22:55.055Z,88.55
2023-05-14T19:25:22.654Z,88.67
2023-05-14T19:27:49.150Z,88.71
2023-05-14T19:30:17.838Z,89.18
2023-05-14T19:32:46.522Z,88.95
2023-05-14T19:35:14.039Z,88.07
2023-05-14T19:37:42.620Z,87.58
2023-05-14T19:40:09.270Z,87.86
2023-05-14T19:42:36.877Z,87.70
2023-05-14T19:45:04.481Z,88.36
2023-05-14T19:47:32.220Z,88.37
2023-05-14T19:49:59.818Z,88.73
2023-05-14T19:52:26.698Z,88.13
2023-05-14T19:54:55.512Z,88.02
2023-05-14T19:57:22.598Z,87.74
2023-05-14T19:59:50.232Z,88.27
2023-05-14T20:02:17.168Z,88.05
2023-05-14T20:04:44.397Z,87.95
2023-05-14T20:07:12.002Z,87.79
2023-05-14T20:09:39.600Z,87.87
2023-05-14T20:12:07.198Z,87.45
2023-05-14T20:14:34.791Z,87.40
2023-05-14T20:17:02.438Z,88.01
2023-05-14T20:19:29.980Z,87.87
2023-05-14T20:21:58.543Z,86.66
2023-05-14T20:24:25.026Z,87.90
2023-05-14T20:26:52.751Z,87.91
2023-05-14T20:29:20.360Z,85.56
2023-05-14T20:31:46.907Z,84.87
2023-05-14T20:34:15.560Z,86.59
2023-05-14T20:36:43.144Z,87.38
2023-05-14T20:39:10.735Z,87.30
2023-05-14T20:41:37.179Z,87.93
2023-05-14T20:44:03.875Z,87.68
2023-05-14T20:46:31.602Z,87.73
2023-05-14T20:48:59.131Z,85.47
2023-05-14T20:51:26.713Z,86.73
2023-05-14T20:53:53.607Z,87.21
2023-05-14T20:56:20.921Z,87.54
2023-05-14T20:58:48.507Z,87.36
2023-05-14T21:01:17.110Z,87.33
2023-05-14T21:03:44.807Z,87.32
2023-05-14T21:06:12.348Z,86.01
2023-05-14T21:08:40.092Z,87.77
2023-05-14T21:11:07.529Z,87.49
2023-05-14T21:13:35.168Z,87.94
2023-05-14T21:16:02.769Z,85.65
2023-05-14T21:18:31.358Z,87.15
2023-05-14T21:20:57.879Z,87.91
2023-05-14T21:23:24.581Z,88.22
2023-05-14T21:25:54.043Z,88.04
2023-05-14T21:28:20.774Z,88.17
2023-05-14T21:30:48.344Z,87.96
2023-05-14T21:33:15.959Z,87.93
2023-05-14T21:35:44.536Z,87.66
2023-05-14T21:38:12.137Z,87.60
2023-05-14T21:40:39.807Z,86.40
2023-05-14T21:43:08.455Z,87.16
2023-05-14T21:45:35.961Z,85.92
2023-05-14T21:48:02.955Z,86.50
2023-05-14T21:50:30.176Z,87.22
2023-05-14T21:52:57.819Z,88.25
2023-05-14T21:55:25.816Z,87.66
2023-05-14T21:57:52.969Z,87.91
2023-05-14T22:00:20.598Z,87.20
2023-05-14T22:02:48.227Z,87.59
2023-05-14T22:05:15.821Z,87.09
2023-05-14T22:07:43.360Z,88.14
2023-05-14T22:10:11.944Z,87.59
2023-05-14T22:12:39.540Z,87.55
2023-05-14T22:15:07.166Z,87.66
2023-05-14T22:17:34.745Z,87.58
2023-05-14T22:20:02.352Z,87.35
2023-05-14T22:22:29.913Z,87.18
2023-05-14T22:24:58.500Z,87.50
2023-05-14T22:27:26.093Z,87.32
2023-05-14T22:29:53.704Z,87.50
2023-05-14T22:32:22.692Z,87.74
2023-05-14T22:34:49.892Z,87.75
2023-05-14T22:37:16.472Z,87.71
2023-05-14T22:39:44.067Z,87.44
2023-05-14T22:42:11.672Z,85.89
2023-05-14T22:44:38.496Z,85.02
2023-05-14T22:47:07.249Z,85.53
2023-05-14T22:49:35.433Z,85.74
2023-05-14T22:52:04.600Z,86.57
2023-05-14T22:54:31.697Z,86.63
2023-05-14T22:57:00.892Z,87.30
2023-05-14T22:59:28.903Z,88.11
2023-05-14T23:01:56.598Z,87.81
2023-05-14T23:04:24.172Z,88.18
2023-05-14T23:06:51.712Z,88.46
2023-05-14T23:09:19.330Z,87.98
2023-05-14T23:11:46.939Z,87.76
2023-05-14T23:14:14.502Z,87.85
2023-05-14T23:16:42.086Z,87.87
2023-05-14T23:19:11.809Z,88.25
2023-05-14T23:21:42.283Z,88.21
2023-05-14T23:24:09.880Z,85.47
2023-05-14T23:26:37.496Z,86.44
2023-05-14T23:29:05.070Z,87.37
2023-05-14T23:31:32.715Z,87.40
2023-05-14T23:34:00.239Z,88.24
2023-05-14T23:36:27.826Z,87.78
2023-05-14T23:38:54.430Z,87.75
2023-05-14T23:41:22.013Z,87.58
2023-05-14T23:43:49.607Z,87.51
2023-05-14T23:46:17.196Z,87.27
2023-05-14T23:48:45.794Z,87.31
2023-05-14T23:51:13.406Z,85.04
2023-05-14T23:53:40.999Z,85.62
2023-05-14T23:56:08.591Z,86.39
2023-05-14T23:58:37.336Z,86.60
